SWR93 SBGR-LSZH
Flight info
| Callsign | SWR93 |
|---|---|
| Flight time | N/A |
| Altitude | 33000 |
| Route | VUMEV UZ14 ENVOG/N0478F350 UZ14 BUGAT UL206 KODOS/N0473F370 DCT TURUP UA302 ANITI UR975 ARDAR UA854 EBATI/N0458F390 UA854 BRENA UA29 TRB DCT DAAG/N0456F400 DCT RISEP DCT MFB DCT EMMEF DCT BANKO DCT KORED/N0417F260 N871 BERSU |
| Aircraft | A343/H-SDE2E3FGHIJ4J5M1P2RWXY/LB1D1 |
Departure
| Time | 2026-05-04 10:45 |
|---|---|
| Airport | São Paulo/Guarulhos–Governor André Franco Montoro International Airport (SBGR) |
Arrival
| Time | N/A |
|---|---|
| Airport | Zürich Airport (LSZH) |
| Time | Latitude | Longitude | Altitude | Speed | Heading |
|---|---|---|---|---|---|
| 2026-05-04 10:17 | -23.42765 | -46.47413 | 2472 ft | 0 kts | 72° |
| 2026-05-04 10:35 | -23.42766 | -46.47417 | 2472 ft | 3 kts | 73° |
| 2026-05-04 10:36 | -23.42773 | -46.47445 | 2472 ft | 4 kts | 81° |
| 2026-05-04 10:36 | -23.42775 | -46.47474 | 2472 ft | 4 kts | 92° |
| 2026-05-04 10:36 | -23.42771 | -46.47503 | 2472 ft | 4 kts | 114° |
| 2026-05-04 10:36 | -23.42757 | -46.47523 | 2474 ft | 3 kts | 162° |
| 2026-05-04 10:37 | -23.42750 | -46.47525 | 2475 ft | 0 kts | 163° |
| 2026-05-04 10:40 | -23.42754 | -46.47524 | 2472 ft | 2 kts | 163° |
| 2026-05-04 10:40 | -23.42783 | -46.47515 | 2475 ft | 7 kts | 164° |
| 2026-05-04 10:40 | -23.42840 | -46.47497 | 2477 ft | 9 kts | 164° |
| 2026-05-04 10:41 | -23.42897 | -46.47480 | 2474 ft | 8 kts | 164° |
| 2026-05-04 10:41 | -23.42962 | -46.47460 | 2474 ft | 11 kts | 164° |
| 2026-05-04 10:41 | -23.43021 | -46.47485 | 2478 ft | 9 kts | 234° |
| 2026-05-04 10:41 | -23.43045 | -46.47551 | 2473 ft | 11 kts | 255° |
| 2026-05-04 10:42 | -23.43068 | -46.47644 | 2477 ft | 14 kts | 255° |
| 2026-05-04 10:42 | -23.43097 | -46.47754 | 2477 ft | 16 kts | 253° |
| 2026-05-04 10:42 | -23.43130 | -46.47876 | 2476 ft | 18 kts | 253° |
| 2026-05-04 10:42 | -23.43167 | -46.48010 | 2474 ft | 19 kts | 253° |
| 2026-05-04 10:43 | -23.43207 | -46.48151 | 2476 ft | 19 kts | 253° |
| 2026-05-04 10:44 | -23.43056 | -46.46964 | 2475 ft | 127 kts | 73° |
| 2026-05-04 10:45 | -23.42775 | -46.45920 | 2475 ft | 162 kts | 73° |
| 2026-05-04 10:45 | -23.42437 | -46.44677 | 2766 ft | 172 kts | 73° |
| 2026-05-04 10:45 | -23.42110 | -46.43433 | 3289 ft | 171 kts | 72° |
| 2026-05-04 10:45 | -23.41755 | -46.42192 | 3807 ft | 171 kts | 70° |
| 2026-05-04 10:46 | -23.41370 | -46.40982 | 4312 ft | 169 kts | 67° |
| 2026-05-04 10:46 | -23.40965 | -46.39745 | 4581 ft | 177 kts | 69° |
| 2026-05-04 10:46 | -23.40583 | -46.38448 | 4866 ft | 183 kts | 70° |
| 2026-05-04 10:46 | -23.40209 | -46.37115 | 5212 ft | 185 kts | 70° |
| 2026-05-04 10:47 | -23.39775 | -46.35787 | 5542 ft | 186 kts | 59° |
| 2026-05-04 10:47 | -23.39044 | -46.34593 | 5766 ft | 196 kts | 52° |
| 2026-05-04 10:47 | -23.38266 | -46.33316 | 5977 ft | 208 kts | 54° |
| 2026-05-04 10:47 | -23.37477 | -46.31963 | 6284 ft | 215 kts | 55° |
| 2026-05-04 10:49 | -23.30601 | -46.20090 | 8486 ft | 300 kts | 56° |
| 2026-05-04 10:49 | -23.29481 | -46.18154 | 9003 ft | 305 kts | 56° |
| 2026-05-04 10:50 | -23.28342 | -46.16189 | 9508 ft | 309 kts | 55° |
| 2026-05-04 10:51 | -23.18123 | -46.02725 | 11479 ft | 371 kts | 18° |
| 2026-05-04 10:52 | -23.15655 | -46.01784 | 11719 ft | 380 kts | 17° |
| 2026-05-04 10:52 | -23.13128 | -46.00879 | 12059 ft | 385 kts | 13° |
| 2026-05-04 10:52 | -23.10490 | -46.00355 | 12442 ft | 388 kts | 5° |
| 2026-05-04 10:54 | -22.91086 | -45.97982 | 15266 ft | 412 kts | 7° |
| 2026-05-04 10:54 | -22.88309 | -45.97118 | 15660 ft | 420 kts | 20° |
| 2026-05-04 10:56 | -22.70831 | -45.84303 | 18372 ft | 445 kts | 32° |
| 2026-05-04 10:56 | -22.68286 | -45.82372 | 18716 ft | 447 kts | 31° |
| 2026-05-04 10:56 | -22.65724 | -45.80441 | 19051 ft | 450 kts | 31° |
| 2026-05-04 10:57 | -22.63145 | -45.78505 | 19384 ft | 452 kts | 31° |
| 2026-05-04 10:57 | -22.60547 | -45.76559 | 19726 ft | 454 kts | 31° |
| 2026-05-04 10:57 | -22.57972 | -45.74630 | 20015 ft | 457 kts | 31° |
| 2026-05-04 10:57 | -22.55348 | -45.72664 | 20350 ft | 460 kts | 31° |
| 2026-05-04 10:58 | -22.52712 | -45.70689 | 20701 ft | 462 kts | 31° |
| 2026-05-04 10:58 | -22.50065 | -45.68703 | 21029 ft | 464 kts | 31° |
| 2026-05-04 10:58 | -22.47406 | -45.66712 | 21341 ft | 466 kts | 31° |
| 2026-05-04 10:58 | -22.44729 | -45.64709 | 21655 ft | 469 kts | 31° |
| 2026-05-04 10:59 | -22.42037 | -45.62695 | 21980 ft | 471 kts | 31° |
| 2026-05-04 10:59 | -22.39339 | -45.60676 | 22312 ft | 473 kts | 31° |
| 2026-05-04 10:59 | -22.37546 | -45.59335 | 22527 ft | 474 kts | 31° |
| 2026-05-04 10:59 | -22.34824 | -45.57301 | 22823 ft | 477 kts | 31° |
| 2026-05-04 11:00 | -22.32086 | -45.55254 | 23150 ft | 479 kts | 31° |
| 2026-05-04 11:01 | -22.12580 | -45.40708 | 25036 ft | 494 kts | 30° |
| 2026-05-04 11:02 | -22.09748 | -45.38600 | 25285 ft | 496 kts | 30° |
| 2026-05-04 11:02 | -22.06900 | -45.36480 | 25526 ft | 497 kts | 30° |
| 2026-05-04 11:05 | -21.67523 | -45.03592 | 28542 ft | 523 kts | 32° |
| 2026-05-04 11:06 | -21.64684 | -45.01209 | 28719 ft | 525 kts | 32° |
| 2026-05-04 11:06 | -21.61795 | -44.98784 | 28913 ft | 527 kts | 32° |
| 2026-05-04 11:06 | -21.58906 | -44.96361 | 29224 ft | 525 kts | 32° |
| 2026-05-04 11:06 | -21.56030 | -44.93946 | 29552 ft | 524 kts | 32° |
| 2026-05-04 11:08 | -21.35948 | -44.77152 | 31023 ft | 524 kts | 32° |
| 2026-05-04 11:10 | -21.15828 | -44.60372 | 32259 ft | 523 kts | 32° |
| 2026-05-04 11:12 | -20.95801 | -44.43723 | 33241 ft | 518 kts | 31° |
| 2026-05-04 11:12 | -20.92964 | -44.41369 | 33248 ft | 513 kts | 31° |
| 2026-05-04 11:12 | -20.87346 | -44.36711 | 33224 ft | 510 kts | 31° |
| 2026-05-04 11:13 | -20.81728 | -44.32067 | 33243 ft | 510 kts | 32° |
| 2026-05-04 11:13 | -20.76114 | -44.27426 | 33245 ft | 510 kts | 32° |
| 2026-05-04 11:14 | -20.70498 | -44.22788 | 33246 ft | 511 kts | 32° |
| 2026-05-04 11:16 | -20.48223 | -44.04165 | 33235 ft | 508 kts | 32° |
| 2026-05-04 11:16 | -20.42628 | -43.99582 | 33249 ft | 506 kts | 31° |
| 2026-05-04 11:17 | -20.37025 | -43.95025 | 33250 ft | 506 kts | 31° |
| 2026-05-04 11:19 | -20.14679 | -43.76800 | 33252 ft | 504 kts | 32° |
| 2026-05-04 11:19 | -20.09102 | -43.72259 | 33247 ft | 504 kts | 32° |
| 2026-05-04 11:20 | -20.03526 | -43.67725 | 33248 ft | 504 kts | 32° |
| 2026-05-04 11:20 | -19.97978 | -43.63215 | 33247 ft | 504 kts | 32° |
| 2026-05-04 11:22 | -19.75691 | -43.45111 | 33242 ft | 504 kts | 32° |
| 2026-05-04 11:23 | -19.70136 | -43.40601 | 33251 ft | 509 kts | 32° |
| 2026-05-04 11:25 | -19.50156 | -43.24411 | 33236 ft | 517 kts | 32° |
| 2026-05-04 11:25 | -19.44437 | -43.19785 | 33234 ft | 516 kts | 32° |
| 2026-05-04 11:27 | -19.18768 | -42.99070 | 33233 ft | 515 kts | 32° |
| 2026-05-04 11:28 | -19.13059 | -42.94475 | 33227 ft | 515 kts | 32° |
| 2026-05-04 11:28 | -19.07350 | -42.89889 | 33226 ft | 515 kts | 32° |
| 2026-05-04 11:29 | -19.01640 | -42.85301 | 33227 ft | 515 kts | 32° |
| 2026-05-04 11:29 | -18.95967 | -42.80748 | 33223 ft | 515 kts | 32° |
| 2026-05-04 11:33 | -18.56052 | -42.48842 | 33230 ft | 515 kts | 32° |
| 2026-05-04 11:33 | -18.50372 | -42.44314 | 33229 ft | 515 kts | 32° |
| 2026-05-04 11:34 | -18.44667 | -42.39772 | 33232 ft | 514 kts | 33° |
| 2026-05-04 11:34 | -18.38948 | -42.35224 | 33227 ft | 515 kts | 33° |
| 2026-05-04 11:35 | -18.33233 | -42.30681 | 33230 ft | 515 kts | 33° |
| 2026-05-04 11:35 | -18.27513 | -42.26141 | 33214 ft | 514 kts | 33° |
| 2026-05-04 11:36 | -18.21798 | -42.21606 | 33236 ft | 515 kts | 33° |
| 2026-05-04 11:36 | -18.16074 | -42.17069 | 33224 ft | 514 kts | 33° |
| 2026-05-04 11:37 | -18.10356 | -42.12542 | 33222 ft | 514 kts | 33° |
| 2026-05-04 11:37 | -18.04632 | -42.08011 | 33230 ft | 515 kts | 33° |
| 2026-05-04 11:38 | -17.98935 | -42.03506 | 33233 ft | 514 kts | 33° |
| 2026-05-04 11:38 | -17.93214 | -41.98987 | 33216 ft | 515 kts | 33° |
| 2026-05-04 11:39 | -17.87496 | -41.94472 | 33236 ft | 514 kts | 33° |
| 2026-05-04 11:41 | -17.67494 | -41.78718 | 33241 ft | 515 kts | 33° |
| 2026-05-04 11:41 | -17.61767 | -41.74213 | 33237 ft | 514 kts | 33° |
| 2026-05-04 11:42 | -17.56045 | -41.69717 | 33238 ft | 514 kts | 33° |
| 2026-05-04 11:42 | -17.50321 | -41.65222 | 33236 ft | 514 kts | 33° |
| 2026-05-04 11:43 | -17.44594 | -41.60733 | 33243 ft | 514 kts | 33° |
| 2026-05-04 11:43 | -17.38875 | -41.56250 | 33240 ft | 513 kts | 34° |
| 2026-05-04 11:44 | -17.33162 | -41.51767 | 33235 ft | 513 kts | 33° |
| 2026-05-04 11:44 | -17.27454 | -41.47297 | 33240 ft | 513 kts | 33° |
| 2026-05-04 11:45 | -17.21738 | -41.42827 | 33227 ft | 513 kts | 34° |
| 2026-05-04 11:45 | -17.16057 | -41.38388 | 33238 ft | 512 kts | 34° |
| 2026-05-04 11:46 | -17.10346 | -41.33929 | 33234 ft | 512 kts | 34° |
| 2026-05-04 11:46 | -17.04637 | -41.29474 | 33234 ft | 511 kts | 34° |
| 2026-05-04 11:47 | -16.99892 | -41.25773 | 33233 ft | 512 kts | 34° |
| 2026-05-04 11:47 | -16.94181 | -41.21323 | 33225 ft | 512 kts | 34° |
| 2026-05-04 11:48 | -16.88470 | -41.16875 | 33223 ft | 512 kts | 34° |
| 2026-05-04 11:48 | -16.82751 | -41.12427 | 33221 ft | 512 kts | 34° |
| 2026-05-04 11:49 | -16.77035 | -41.07982 | 33223 ft | 512 kts | 34° |
| 2026-05-04 11:49 | -16.71319 | -41.03541 | 33223 ft | 512 kts | 34° |
| 2026-05-04 11:50 | -16.65640 | -40.99135 | 33214 ft | 512 kts | 34° |
| 2026-05-04 11:50 | -16.59925 | -40.94701 | 33216 ft | 512 kts | 34° |
| 2026-05-04 11:51 | -16.54207 | -40.90269 | 33208 ft | 511 kts | 34° |
| 2026-05-04 11:51 | -16.48495 | -40.85844 | 33206 ft | 511 kts | 34° |
| 2026-05-04 11:52 | -16.42785 | -40.81423 | 33202 ft | 511 kts | 34° |
| 2026-05-04 11:52 | -16.37105 | -40.77031 | 33198 ft | 511 kts | 34° |
| 2026-05-04 11:53 | -16.31390 | -40.72616 | 33189 ft | 511 kts | 34° |
| 2026-05-04 11:53 | -16.25676 | -40.68206 | 33194 ft | 511 kts | 34° |
| 2026-05-04 11:55 | -16.02857 | -40.50615 | 33181 ft | 510 kts | 35° |
| 2026-05-04 11:56 | -15.97150 | -40.46224 | 33178 ft | 510 kts | 35° |
| 2026-05-04 11:56 | -15.91479 | -40.41870 | 33178 ft | 509 kts | 35° |
| 2026-05-04 11:57 | -15.85779 | -40.37498 | 33175 ft | 509 kts | 35° |
| 2026-05-04 11:57 | -15.80074 | -40.33123 | 33176 ft | 509 kts | 35° |
| 2026-05-04 11:58 | -15.74378 | -40.28756 | 33174 ft | 509 kts | 35° |
| 2026-05-04 11:58 | -15.68671 | -40.24386 | 33175 ft | 509 kts | 35° |
| 2026-05-04 11:59 | -15.62971 | -40.20026 | 33168 ft | 509 kts | 35° |
| 2026-05-04 11:59 | -15.57273 | -40.15673 | 33170 ft | 509 kts | 35° |
| 2026-05-04 12:00 | -15.51601 | -40.11351 | 33168 ft | 508 kts | 35° |
| 2026-05-04 12:00 | -15.45896 | -40.07002 | 33172 ft | 509 kts | 35° |
| 2026-05-04 12:01 | -15.40185 | -40.02653 | 33170 ft | 509 kts | 35° |
| 2026-05-04 12:02 | -15.20264 | -39.87511 | 33167 ft | 508 kts | 35° |
| 2026-05-04 12:03 | -15.14640 | -39.83244 | 33167 ft | 507 kts | 35° |
| 2026-05-04 12:03 | -15.08949 | -39.78927 | 33162 ft | 507 kts | 35° |
| 2026-05-04 12:04 | -15.03264 | -39.74618 | 33158 ft | 506 kts | 35° |
| 2026-05-04 12:04 | -14.97572 | -39.70305 | 33157 ft | 506 kts | 35° |
| 2026-05-04 12:05 | -14.91915 | -39.66035 | 33155 ft | 506 kts | 35° |
| 2026-05-04 12:05 | -14.86217 | -39.61752 | 33154 ft | 506 kts | 35° |
| 2026-05-04 12:06 | -14.80521 | -39.57471 | 33158 ft | 506 kts | 35° |
| 2026-05-04 12:06 | -14.74833 | -39.53195 | 33152 ft | 506 kts | 35° |
| 2026-05-04 12:07 | -14.69135 | -39.48913 | 33147 ft | 505 kts | 35° |
| 2026-05-04 12:07 | -14.63446 | -39.44641 | 33143 ft | 505 kts | 35° |
| 2026-05-04 12:08 | -14.57755 | -39.40370 | 33142 ft | 505 kts | 35° |
| 2026-05-04 12:08 | -14.52066 | -39.36103 | 33144 ft | 506 kts | 35° |
| 2026-05-04 12:09 | -14.46372 | -39.31835 | 33145 ft | 505 kts | 35° |
| 2026-05-04 12:09 | -14.40716 | -39.27599 | 33135 ft | 505 kts | 35° |
| 2026-05-04 12:10 | -14.35023 | -39.23337 | 33136 ft | 505 kts | 35° |
| 2026-05-04 12:10 | -14.29336 | -39.19082 | 33136 ft | 505 kts | 35° |
| 2026-05-04 12:11 | -14.23638 | -39.14823 | 33138 ft | 505 kts | 35° |
| 2026-05-04 12:11 | -14.17956 | -39.10578 | 33129 ft | 504 kts | 35° |
| 2026-05-04 12:12 | -14.12288 | -39.06346 | 33131 ft | 504 kts | 35° |
| 2026-05-04 12:12 | -14.06603 | -39.02105 | 33127 ft | 504 kts | 35° |
| 2026-05-04 12:14 | -13.83873 | -38.85171 | 33118 ft | 505 kts | 35° |
| 2026-05-04 12:15 | -13.78180 | -38.80936 | 33122 ft | 505 kts | 35° |
| 2026-05-04 12:15 | -13.72488 | -38.76704 | 33116 ft | 505 kts | 35° |
| 2026-05-04 12:16 | -13.66790 | -38.72471 | 33116 ft | 505 kts | 35° |
| 2026-05-04 12:16 | -13.61125 | -38.68265 | 33117 ft | 505 kts | 35° |
| 2026-05-04 12:17 | -13.55427 | -38.64036 | 33112 ft | 505 kts | 35° |
| 2026-05-04 12:17 | -13.49723 | -38.59807 | 33114 ft | 505 kts | 35° |
| 2026-05-04 12:18 | -13.44019 | -38.55580 | 33113 ft | 505 kts | 35° |
| 2026-05-04 12:18 | -13.38301 | -38.51345 | 33114 ft | 505 kts | 35° |
| 2026-05-04 12:19 | -13.32599 | -38.47123 | 33108 ft | 505 kts | 35° |
| 2026-05-04 12:19 | -13.26925 | -38.42926 | 33108 ft | 505 kts | 35° |
| 2026-05-04 12:20 | -13.21216 | -38.38705 | 33103 ft | 505 kts | 35° |
| 2026-05-04 12:20 | -13.15510 | -38.34489 | 33093 ft | 506 kts | 35° |
| 2026-05-04 12:21 | -13.09798 | -38.30270 | 33087 ft | 506 kts | 35° |
| 2026-05-04 12:21 | -13.04079 | -38.26056 | 33082 ft | 506 kts | 35° |
| 2026-05-04 12:22 | -12.98389 | -38.21857 | 33079 ft | 506 kts | 35° |
| 2026-05-04 12:22 | -12.92676 | -38.17643 | 33081 ft | 505 kts | 35° |
| 2026-05-04 12:23 | -12.86964 | -38.13434 | 33086 ft | 505 kts | 35° |
| 2026-05-04 12:23 | -12.81257 | -38.09233 | 33093 ft | 505 kts | 35° |
| 2026-05-04 12:24 | -12.75546 | -38.05031 | 33102 ft | 505 kts | 35° |
| 2026-05-04 12:24 | -12.69871 | -38.00858 | 33108 ft | 505 kts | 35° |
| 2026-05-04 12:25 | -12.64170 | -37.96668 | 33108 ft | 505 kts | 35° |
| 2026-05-04 12:25 | -12.58460 | -37.92474 | 33107 ft | 504 kts | 35° |
| 2026-05-04 12:26 | -12.52768 | -37.88295 | 33104 ft | 503 kts | 35° |
| 2026-05-04 12:26 | -12.47068 | -37.84113 | 33103 ft | 503 kts | 35° |
| 2026-05-04 12:27 | -12.41372 | -37.79936 | 33104 ft | 504 kts | 35° |
| 2026-05-04 12:27 | -12.35670 | -37.75756 | 33106 ft | 504 kts | 35° |
| 2026-05-04 12:28 | -12.30005 | -37.71607 | 33109 ft | 504 kts | 35° |
| 2026-05-04 12:28 | -12.24305 | -37.67433 | 33101 ft | 503 kts | 35° |
| 2026-05-04 12:29 | -12.18615 | -37.63270 | 33100 ft | 503 kts | 35° |
| 2026-05-04 12:29 | -12.12924 | -37.59109 | 33102 ft | 503 kts | 35° |
| 2026-05-04 12:30 | -12.07230 | -37.54947 | 33101 ft | 503 kts | 35° |
| 2026-05-04 12:30 | -12.01532 | -37.50784 | 33099 ft | 503 kts | 35° |
| 2026-05-04 12:31 | -11.95841 | -37.46628 | 33107 ft | 503 kts | 35° |
| 2026-05-04 12:31 | -11.90186 | -37.42507 | 33096 ft | 502 kts | 35° |
| 2026-05-04 12:32 | -11.81631 | -37.36312 | 33097 ft | 503 kts | 35° |
| 2026-05-04 12:33 | -11.75927 | -37.32183 | 33092 ft | 502 kts | 35° |
| 2026-05-04 12:33 | -11.70225 | -37.28057 | 33095 ft | 502 kts | 35° |
| 2026-05-04 12:34 | -11.65480 | -37.24625 | 33094 ft | 502 kts | 35° |
| 2026-05-04 12:34 | -11.59781 | -37.20504 | 33095 ft | 503 kts | 35° |
| 2026-05-04 12:35 | -11.54077 | -37.16382 | 33090 ft | 503 kts | 35° |
| 2026-05-04 12:35 | -11.48358 | -37.12251 | 33089 ft | 503 kts | 35° |
| 2026-05-04 12:36 | -11.42648 | -37.08130 | 33089 ft | 502 kts | 35° |
| 2026-05-04 12:36 | -11.36964 | -37.04028 | 33090 ft | 503 kts | 34° |
| 2026-05-04 12:37 | -11.31257 | -36.99913 | 33084 ft | 503 kts | 34° |
| 2026-05-04 12:37 | -11.25542 | -36.95793 | 33088 ft | 502 kts | 34° |
| 2026-05-04 12:38 | -11.19830 | -36.91678 | 33075 ft | 502 kts | 34° |
| 2026-05-04 12:38 | -11.14161 | -36.87595 | 33070 ft | 502 kts | 34° |
| 2026-05-04 12:39 | -11.08448 | -36.83483 | 33071 ft | 503 kts | 34° |
| 2026-05-04 12:39 | -11.02737 | -36.79375 | 33075 ft | 503 kts | 34° |
| 2026-05-04 12:40 | -10.97020 | -36.75264 | 33077 ft | 503 kts | 34° |
| 2026-05-04 12:40 | -10.91305 | -36.71157 | 33079 ft | 502 kts | 34° |
| 2026-05-04 12:41 | -10.85592 | -36.67052 | 33077 ft | 503 kts | 34° |
| 2026-05-04 12:41 | -10.79875 | -36.62953 | 33079 ft | 503 kts | 34° |
| 2026-05-04 12:42 | -10.74134 | -36.58867 | 33079 ft | 503 kts | 34° |
| 2026-05-04 12:42 | -10.68431 | -36.54814 | 33077 ft | 503 kts | 34° |
| 2026-05-04 12:43 | -10.62691 | -36.50733 | 33076 ft | 503 kts | 34° |
| 2026-05-04 12:43 | -10.56949 | -36.46650 | 33074 ft | 504 kts | 34° |
| 2026-05-04 12:44 | -10.51198 | -36.42561 | 33076 ft | 504 kts | 34° |
| 2026-05-04 12:44 | -10.45446 | -36.38474 | 33071 ft | 504 kts | 34° |
| 2026-05-04 12:45 | -10.39698 | -36.34392 | 33073 ft | 504 kts | 34° |
| 2026-05-04 12:45 | -10.33986 | -36.30337 | 33069 ft | 504 kts | 33° |
| 2026-05-04 12:46 | -10.28226 | -36.26250 | 33073 ft | 505 kts | 33° |
| 2026-05-04 12:46 | -10.22463 | -36.22163 | 33071 ft | 504 kts | 33° |
| 2026-05-04 12:47 | -10.16737 | -36.18104 | 33071 ft | 504 kts | 33° |
| 2026-05-04 12:47 | -10.10982 | -36.14026 | 33068 ft | 504 kts | 33° |
| 2026-05-04 12:48 | -10.05223 | -36.09946 | 33072 ft | 504 kts | 33° |
| 2026-05-04 12:48 | -9.99465 | -36.05870 | 33071 ft | 505 kts | 33° |
| 2026-05-04 12:49 | -9.93703 | -36.01792 | 33068 ft | 505 kts | 33° |
| 2026-05-04 12:49 | -9.87976 | -35.97741 | 33068 ft | 504 kts | 33° |
| 2026-05-04 12:50 | -9.82216 | -35.93669 | 33067 ft | 504 kts | 33° |
| 2026-05-04 12:50 | -9.76450 | -35.89594 | 33061 ft | 505 kts | 33° |
| 2026-05-04 12:51 | -9.70681 | -35.85519 | 33057 ft | 505 kts | 33° |
| 2026-05-04 12:51 | -9.64913 | -35.81446 | 33052 ft | 505 kts | 33° |
| 2026-05-04 12:52 | -9.59146 | -35.77375 | 33046 ft | 505 kts | 33° |
| 2026-05-04 12:52 | -9.53411 | -35.73329 | 33046 ft | 505 kts | 33° |
| 2026-05-04 12:53 | -9.47666 | -35.69277 | 33047 ft | 505 kts | 33° |
| 2026-05-04 12:53 | -9.41922 | -35.65229 | 33055 ft | 505 kts | 33° |
| 2026-05-04 12:54 | -9.36144 | -35.61157 | 33060 ft | 505 kts | 33° |
| 2026-05-04 12:54 | -9.30409 | -35.57118 | 33070 ft | 505 kts | 33° |
| 2026-05-04 12:55 | -9.24640 | -35.53056 | 33061 ft | 505 kts | 33° |
| 2026-05-04 12:55 | -9.18856 | -35.48989 | 33058 ft | 506 kts | 33° |
| 2026-05-04 12:56 | -9.13074 | -35.44922 | 33054 ft | 506 kts | 33° |
| 2026-05-04 12:56 | -9.07287 | -35.40850 | 33055 ft | 507 kts | 33° |
| 2026-05-04 12:57 | -9.01485 | -35.36771 | 33058 ft | 507 kts | 33° |
| 2026-05-04 12:57 | -8.95688 | -35.32698 | 33049 ft | 507 kts | 33° |
| 2026-05-04 12:58 | -8.89918 | -35.28646 | 33049 ft | 508 kts | 33° |
| 2026-05-04 12:58 | -8.84097 | -35.24556 | 33046 ft | 508 kts | 33° |
| 2026-05-04 12:59 | -8.78282 | -35.20476 | 33050 ft | 508 kts | 32° |
| 2026-05-04 12:59 | -8.72469 | -35.16399 | 33046 ft | 508 kts | 32° |
| 2026-05-04 13:00 | -8.66694 | -35.12350 | 33056 ft | 508 kts | 33° |
| 2026-05-04 13:00 | -8.60878 | -35.08273 | 33042 ft | 509 kts | 33° |
| 2026-05-04 13:01 | -8.55056 | -35.04193 | 33040 ft | 509 kts | 33° |
| 2026-05-04 13:01 | -8.49244 | -35.00121 | 33039 ft | 508 kts | 33° |
| 2026-05-04 13:02 | -8.43426 | -34.96047 | 33040 ft | 508 kts | 33° |
| 2026-05-04 13:02 | -8.37645 | -34.92001 | 33032 ft | 508 kts | 33° |
| 2026-05-04 13:03 | -8.31819 | -34.87925 | 33029 ft | 509 kts | 33° |
| 2026-05-04 13:03 | -8.26001 | -34.83855 | 33025 ft | 509 kts | 33° |
| 2026-05-04 13:04 | -8.20171 | -34.79779 | 33022 ft | 509 kts | 33° |
| 2026-05-04 13:04 | -8.14393 | -34.75623 | 33023 ft | 510 kts | 36° |
| 2026-05-04 13:05 | -8.08899 | -34.71155 | 33024 ft | 511 kts | 38° |
| 2026-05-04 13:05 | -8.03393 | -34.66606 | 33028 ft | 512 kts | 37° |
| 2026-05-04 13:06 | -7.97844 | -34.62104 | 33042 ft | 512 kts | 37° |
| 2026-05-04 13:06 | -7.92268 | -34.57631 | 33025 ft | 512 kts | 37° |
| 2026-05-04 13:07 | -7.86691 | -34.53170 | 33036 ft | 512 kts | 37° |
| 2026-05-04 13:07 | -7.81113 | -34.48708 | 33034 ft | 512 kts | 37° |
| 2026-05-04 13:08 | -7.75728 | -34.44001 | 33012 ft | 514 kts | 46° |
| 2026-05-04 13:08 | -7.71134 | -34.38460 | 33032 ft | 515 kts | 50° |
| 2026-05-04 13:09 | -7.66708 | -34.32771 | 33015 ft | 516 kts | 51° |
| 2026-05-04 13:09 | -7.62301 | -34.27057 | 33011 ft | 516 kts | 51° |
| 2026-05-04 13:10 | -7.57910 | -34.21392 | 33029 ft | 516 kts | 51° |
| 2026-05-04 13:10 | -7.53482 | -34.15703 | 33010 ft | 516 kts | 51° |
| 2026-05-04 13:11 | -7.49043 | -34.10008 | 33029 ft | 516 kts | 51° |
| 2026-05-04 13:11 | -7.44604 | -34.04316 | 33012 ft | 516 kts | 51° |
| 2026-05-04 13:12 | -7.40160 | -33.98628 | 33009 ft | 516 kts | 51° |
| 2026-05-04 13:12 | -7.35719 | -33.92940 | 33025 ft | 516 kts | 51° |
| 2026-05-04 13:13 | -7.31307 | -33.87292 | 33023 ft | 516 kts | 51° |
| 2026-05-04 13:13 | -7.26864 | -33.81607 | 33004 ft | 516 kts | 51° |
| 2026-05-04 13:14 | -7.22425 | -33.75930 | 33004 ft | 516 kts | 51° |
| 2026-05-04 13:14 | -7.17988 | -33.70257 | 33022 ft | 515 kts | 51° |
| 2026-05-04 13:15 | -7.13545 | -33.64583 | 33002 ft | 515 kts | 51° |
| 2026-05-04 13:15 | -7.09105 | -33.58911 | 33020 ft | 516 kts | 51° |
| 2026-05-04 13:16 | -7.04667 | -33.53235 | 33021 ft | 515 kts | 51° |
| 2026-05-04 13:16 | -7.00227 | -33.47560 | 33008 ft | 515 kts | 51° |
| 2026-05-04 13:17 | -6.95818 | -33.41930 | 33002 ft | 515 kts | 51° |
| 2026-05-04 13:17 | -6.91389 | -33.36276 | 33020 ft | 513 kts | 51° |
| 2026-05-04 13:18 | -6.86967 | -33.30633 | 33002 ft | 513 kts | 51° |
| 2026-05-04 13:18 | -6.82543 | -33.24990 | 32996 ft | 513 kts | 51° |
| 2026-05-04 13:19 | -6.78118 | -33.19348 | 33016 ft | 513 kts | 51° |
| 2026-05-04 13:19 | -6.73685 | -33.13696 | 32996 ft | 513 kts | 51° |
| 2026-05-04 13:20 | -6.69295 | -33.08102 | 32997 ft | 512 kts | 51° |
| 2026-05-04 13:20 | -6.64875 | -33.02471 | 33014 ft | 512 kts | 51° |
| 2026-05-04 13:21 | -6.60459 | -32.96847 | 32993 ft | 512 kts | 51° |
| 2026-05-04 13:21 | -6.56038 | -32.91219 | 32993 ft | 513 kts | 51° |
| 2026-05-04 13:22 | -6.51619 | -32.85594 | 33015 ft | 512 kts | 51° |
| 2026-05-04 13:22 | -6.47918 | -32.80885 | 33015 ft | 512 kts | 51° |
| 2026-05-04 13:23 | -6.43498 | -32.75262 | 33000 ft | 512 kts | 51° |
| 2026-05-04 13:23 | -6.39106 | -32.69679 | 33010 ft | 512 kts | 51° |
| 2026-05-04 13:24 | -6.34700 | -32.64078 | 32992 ft | 510 kts | 51° |
| 2026-05-04 13:24 | -6.30292 | -32.58476 | 33012 ft | 510 kts | 51° |
| 2026-05-04 13:25 | -6.23689 | -32.50088 | 33008 ft | 509 kts | 51° |
| 2026-05-04 13:25 | -6.19320 | -32.44540 | 33070 ft | 510 kts | 51° |
| 2026-05-04 13:26 | -6.14918 | -32.38951 | 33224 ft | 510 kts | 51° |
| 2026-05-04 13:26 | -6.10514 | -32.33363 | 33353 ft | 510 kts | 51° |
| 2026-05-04 13:27 | -6.06118 | -32.27785 | 33521 ft | 508 kts | 51° |
| 2026-05-04 13:27 | -6.01727 | -32.22216 | 33669 ft | 508 kts | 51° |
| 2026-05-04 13:28 | -5.97341 | -32.16654 | 33840 ft | 508 kts | 51° |
| 2026-05-04 13:28 | -5.92957 | -32.11098 | 33976 ft | 507 kts | 51° |
| 2026-05-04 13:29 | -5.88573 | -32.05542 | 34117 ft | 507 kts | 51° |
| 2026-05-04 13:29 | -5.84197 | -31.99998 | 34250 ft | 506 kts | 51° |
| 2026-05-04 13:30 | -5.79817 | -31.94450 | 34364 ft | 506 kts | 51° |
| 2026-05-04 13:30 | -5.75428 | -31.88934 | 34512 ft | 505 kts | 51° |
| 2026-05-04 13:31 | -5.71036 | -31.83481 | 34649 ft | 505 kts | 50° |
| 2026-05-04 13:31 | -5.66619 | -31.77993 | 34796 ft | 504 kts | 50° |
| 2026-05-04 13:32 | -5.62213 | -31.72509 | 34921 ft | 504 kts | 50° |
| 2026-05-04 13:32 | -5.57865 | -31.67094 | 34986 ft | 505 kts | 50° |
| 2026-05-04 13:33 | -5.53457 | -31.61604 | 34987 ft | 504 kts | 50° |
| 2026-05-04 13:33 | -5.49045 | -31.56111 | 34987 ft | 504 kts | 51° |
| 2026-05-04 13:34 | -5.44641 | -31.50631 | 34994 ft | 504 kts | 50° |
| 2026-05-04 13:34 | -5.40258 | -31.45176 | 34994 ft | 504 kts | 50° |
| 2026-05-04 13:35 | -5.33641 | -31.36946 | 34987 ft | 505 kts | 50° |
| 2026-05-04 13:36 | -5.29233 | -31.31465 | 34986 ft | 505 kts | 50° |
| 2026-05-04 13:36 | -5.24821 | -31.25980 | 34984 ft | 504 kts | 50° |
| 2026-05-04 13:37 | -5.20432 | -31.20525 | 34985 ft | 504 kts | 50° |
| 2026-05-04 13:37 | -5.16020 | -31.15043 | 34987 ft | 504 kts | 50° |
| 2026-05-04 13:38 | -5.11608 | -31.09563 | 34985 ft | 504 kts | 50° |
| 2026-05-04 13:38 | -5.07196 | -31.04083 | 34989 ft | 504 kts | 50° |
| 2026-05-04 13:39 | -5.02783 | -30.98604 | 34989 ft | 504 kts | 50° |
| 2026-05-04 13:39 | -4.98373 | -30.93130 | 34986 ft | 504 kts | 50° |
| 2026-05-04 13:40 | -4.93988 | -30.87688 | 34992 ft | 504 kts | 50° |
| 2026-05-04 13:40 | -4.89582 | -30.82221 | 34990 ft | 504 kts | 50° |
| 2026-05-04 13:41 | -4.85179 | -30.76760 | 34987 ft | 502 kts | 50° |
| 2026-05-04 13:41 | -4.80789 | -30.71316 | 34987 ft | 501 kts | 50° |
| 2026-05-04 13:42 | -4.74205 | -30.63152 | 34988 ft | 502 kts | 50° |
| 2026-05-04 13:42 | -4.69837 | -30.57739 | 34989 ft | 502 kts | 50° |
| 2026-05-04 13:43 | -4.65444 | -30.52296 | 34990 ft | 502 kts | 50° |
| 2026-05-04 13:43 | -4.61050 | -30.46851 | 34990 ft | 502 kts | 50° |
| 2026-05-04 13:44 | -4.56658 | -30.41411 | 34989 ft | 501 kts | 50° |
| 2026-05-04 13:44 | -4.52273 | -30.35981 | 34992 ft | 501 kts | 51° |
| 2026-05-04 13:45 | -4.47891 | -30.30556 | 34989 ft | 501 kts | 51° |
| 2026-05-04 13:45 | -4.43533 | -30.25162 | 34990 ft | 501 kts | 51° |
| 2026-05-04 13:46 | -4.39152 | -30.19739 | 34987 ft | 501 kts | 50° |
| 2026-05-04 13:46 | -4.34766 | -30.14312 | 34986 ft | 501 kts | 51° |
| 2026-05-04 13:47 | -4.30382 | -30.08889 | 34987 ft | 501 kts | 51° |
| 2026-05-04 13:47 | -4.25991 | -30.03466 | 34986 ft | 500 kts | 51° |
| 2026-05-04 13:48 | -4.21605 | -29.98045 | 34987 ft | 500 kts | 51° |
| 2026-05-04 13:48 | -4.17251 | -29.92656 | 34987 ft | 500 kts | 51° |
| 2026-05-04 13:49 | -4.12871 | -29.87238 | 34987 ft | 500 kts | 51° |
| 2026-05-04 13:49 | -4.08491 | -29.81825 | 34987 ft | 500 kts | 51° |
| 2026-05-04 13:50 | -4.04102 | -29.76401 | 34986 ft | 500 kts | 51° |
| 2026-05-04 13:50 | -3.99711 | -29.70978 | 34987 ft | 500 kts | 51° |
| 2026-05-04 13:51 | -3.95350 | -29.65592 | 34983 ft | 500 kts | 51° |
| 2026-05-04 13:51 | -3.90967 | -29.60184 | 34986 ft | 499 kts | 51° |
| 2026-05-04 13:52 | -3.84403 | -29.52077 | 34984 ft | 499 kts | 51° |
| 2026-05-04 13:53 | -3.80021 | -29.46672 | 34984 ft | 499 kts | 51° |
| 2026-05-04 13:53 | -3.75672 | -29.41312 | 34979 ft | 499 kts | 51° |
| 2026-05-04 13:54 | -3.69114 | -29.33210 | 34978 ft | 499 kts | 51° |
| 2026-05-04 13:55 | -3.62304 | -29.25308 | 34986 ft | 500 kts | 43° |
| 2026-05-04 13:55 | -3.53874 | -29.19188 | 34982 ft | 500 kts | 33° |
| 2026-05-04 13:56 | -3.47970 | -29.15485 | 34979 ft | 500 kts | 32° |
| 2026-05-04 13:57 | -3.39145 | -29.09980 | 34977 ft | 500 kts | 32° |
| 2026-05-04 13:58 | -3.27356 | -29.02567 | 34975 ft | 499 kts | 33° |
| 2026-05-04 13:58 | -3.18578 | -28.97040 | 34977 ft | 498 kts | 33° |
| 2026-05-04 13:59 | -3.12705 | -28.93342 | 34979 ft | 498 kts | 33° |
| 2026-05-04 14:00 | -3.03980 | -28.87852 | 34981 ft | 497 kts | 33° |
| 2026-05-04 14:00 | -2.95195 | -28.82318 | 34986 ft | 497 kts | 33° |
| 2026-05-04 14:01 | -2.89333 | -28.78635 | 34983 ft | 497 kts | 33° |
| 2026-05-04 14:02 | -2.80590 | -28.73131 | 34980 ft | 497 kts | 33° |
| 2026-05-04 14:02 | -2.74735 | -28.69445 | 34979 ft | 497 kts | 33° |
| 2026-05-04 14:03 | -2.68881 | -28.65761 | 34981 ft | 497 kts | 33° |
| 2026-05-04 14:03 | -2.63030 | -28.62084 | 34977 ft | 497 kts | 33° |
| 2026-05-04 14:04 | -2.54251 | -28.56558 | 34977 ft | 497 kts | 33° |
| 2026-05-04 14:04 | -2.48423 | -28.52892 | 34977 ft | 497 kts | 33° |
| 2026-05-04 14:05 | -2.39642 | -28.47369 | 34979 ft | 497 kts | 33° |
| 2026-05-04 14:06 | -2.33786 | -28.43687 | 34980 ft | 497 kts | 33° |
| 2026-05-04 14:06 | -2.27934 | -28.40007 | 34974 ft | 497 kts | 33° |
| 2026-05-04 14:07 | -2.22082 | -28.36328 | 34975 ft | 497 kts | 33° |
| 2026-05-04 14:07 | -2.17218 | -28.33270 | 34974 ft | 497 kts | 33° |
| 2026-05-04 14:08 | -2.11365 | -28.29591 | 34978 ft | 497 kts | 33° |
| 2026-05-04 14:08 | -2.05508 | -28.25910 | 34977 ft | 497 kts | 33° |
| 2026-05-04 14:09 | -1.96719 | -28.20390 | 34977 ft | 497 kts | 33° |
| 2026-05-04 14:10 | -1.87926 | -28.14863 | 34978 ft | 498 kts | 33° |
| 2026-05-04 14:10 | -1.82059 | -28.11175 | 34977 ft | 498 kts | 33° |
| 2026-05-04 14:11 | -1.76226 | -28.07510 | 34982 ft | 498 kts | 33° |
| 2026-05-04 14:11 | -1.67387 | -28.01957 | 34979 ft | 498 kts | 33° |
| 2026-05-04 14:12 | -1.61539 | -27.98284 | 34974 ft | 500 kts | 33° |
| 2026-05-04 14:13 | -1.52699 | -27.92731 | 34971 ft | 500 kts | 33° |
| 2026-05-04 14:13 | -1.46802 | -27.89028 | 34971 ft | 500 kts | 33° |
| 2026-05-04 14:14 | -1.40909 | -27.85327 | 34971 ft | 500 kts | 33° |
| 2026-05-04 14:14 | -1.32050 | -27.79764 | 34971 ft | 501 kts | 33° |
| 2026-05-04 14:15 | -1.20281 | -27.72374 | 34970 ft | 501 kts | 33° |
| 2026-05-04 14:16 | -1.11432 | -27.66818 | 34969 ft | 501 kts | 33° |
| 2026-05-04 14:17 | -1.02575 | -27.61258 | 34969 ft | 501 kts | 33° |
| 2026-05-04 14:18 | -0.93754 | -27.55720 | 34966 ft | 501 kts | 33° |
| 2026-05-04 14:19 | -0.81951 | -27.48312 | 34969 ft | 501 kts | 33° |
| 2026-05-04 14:19 | -0.76047 | -27.44606 | 34966 ft | 500 kts | 33° |
| 2026-05-04 14:20 | -0.70147 | -27.40903 | 34964 ft | 500 kts | 33° |
| 2026-05-04 14:20 | -0.64295 | -27.37230 | 34964 ft | 500 kts | 33° |
| 2026-05-04 14:21 | -0.55451 | -27.31681 | 34963 ft | 500 kts | 32° |
| 2026-05-04 14:21 | -0.49541 | -27.28020 | 34963 ft | 500 kts | 32° |
| 2026-05-04 14:22 | -0.43611 | -27.24362 | 34964 ft | 500 kts | 32° |
| 2026-05-04 14:22 | -0.37709 | -27.20716 | 34961 ft | 500 kts | 32° |
| 2026-05-04 14:23 | -0.28836 | -27.15226 | 34961 ft | 500 kts | 32° |
| 2026-05-04 14:24 | -0.22919 | -27.11560 | 34960 ft | 500 kts | 33° |
| 2026-05-04 14:24 | -0.17030 | -27.07863 | 34960 ft | 500 kts | 33° |
| 2026-05-04 14:25 | -0.11141 | -27.04155 | 34957 ft | 500 kts | 33° |
| 2026-05-04 14:25 | -0.02339 | -26.98629 | 34958 ft | 500 kts | 33° |
| 2026-05-04 14:26 | 0.03554 | -26.94933 | 34960 ft | 500 kts | 33° |
| 2026-05-04 14:26 | 0.09445 | -26.91239 | 34961 ft | 500 kts | 33° |
| 2026-05-04 14:27 | 0.15339 | -26.87544 | 34957 ft | 500 kts | 33° |
| 2026-05-04 14:27 | 0.21231 | -26.83853 | 34958 ft | 499 kts | 33° |
| 2026-05-04 14:28 | 0.27118 | -26.80159 | 34959 ft | 499 kts | 33° |
| 2026-05-04 14:28 | 0.32963 | -26.76492 | 34956 ft | 499 kts | 33° |
| 2026-05-04 14:29 | 0.44745 | -26.69101 | 34958 ft | 500 kts | 33° |
| 2026-05-04 14:30 | 0.50639 | -26.65406 | 34958 ft | 500 kts | 33° |
| 2026-05-04 14:31 | 0.59479 | -26.59861 | 34955 ft | 500 kts | 33° |
| 2026-05-04 14:32 | 0.71216 | -26.52499 | 34958 ft | 499 kts | 33° |
| 2026-05-04 14:32 | 0.77105 | -26.48806 | 34955 ft | 499 kts | 33° |
| 2026-05-04 14:33 | 0.82989 | -26.45115 | 34957 ft | 499 kts | 33° |
| 2026-05-04 14:33 | 0.88875 | -26.41423 | 34955 ft | 499 kts | 33° |
| 2026-05-04 14:34 | 0.94724 | -26.37754 | 34955 ft | 499 kts | 33° |
| 2026-05-04 14:34 | 1.00608 | -26.34063 | 34956 ft | 499 kts | 33° |
| 2026-05-04 14:35 | 1.06494 | -26.30370 | 34953 ft | 500 kts | 32° |
| 2026-05-04 14:35 | 1.12390 | -26.26671 | 34955 ft | 500 kts | 32° |
| 2026-05-04 14:36 | 1.18293 | -26.22967 | 34954 ft | 500 kts | 32° |
| 2026-05-04 14:36 | 1.24187 | -26.19271 | 34952 ft | 500 kts | 32° |
| 2026-05-04 14:37 | 1.30045 | -26.15597 | 34951 ft | 500 kts | 32° |
| 2026-05-04 14:37 | 1.35937 | -26.11899 | 34952 ft | 500 kts | 32° |
| 2026-05-04 14:38 | 1.41832 | -26.08202 | 34953 ft | 501 kts | 32° |
| 2026-05-04 14:38 | 1.47750 | -26.04490 | 34951 ft | 502 kts | 32° |
| 2026-05-04 14:39 | 1.53626 | -26.00802 | 34952 ft | 502 kts | 32° |
| 2026-05-04 14:39 | 1.59539 | -25.97091 | 34953 ft | 502 kts | 32° |
| 2026-05-04 14:40 | 1.68406 | -25.91527 | 34953 ft | 501 kts | 32° |
| 2026-05-04 14:40 | 1.74318 | -25.87820 | 34950 ft | 502 kts | 32° |
| 2026-05-04 14:41 | 1.80242 | -25.84102 | 34952 ft | 502 kts | 32° |
| 2026-05-04 14:42 | 1.92087 | -25.76664 | 34948 ft | 502 kts | 32° |
| 2026-05-04 14:42 | 1.98017 | -25.72941 | 34948 ft | 502 kts | 32° |
| 2026-05-04 14:43 | 2.03907 | -25.69244 | 34952 ft | 502 kts | 32° |
| 2026-05-04 14:43 | 2.09829 | -25.65525 | 34952 ft | 503 kts | 32° |
| 2026-05-04 14:44 | 2.15763 | -25.61801 | 34948 ft | 503 kts | 32° |
| 2026-05-04 14:44 | 2.21702 | -25.58069 | 34951 ft | 504 kts | 32° |
| 2026-05-04 14:45 | 2.27598 | -25.54366 | 34946 ft | 503 kts | 32° |
| 2026-05-04 14:45 | 2.33532 | -25.50639 | 34946 ft | 503 kts | 32° |
| 2026-05-04 14:46 | 2.39465 | -25.46912 | 34949 ft | 503 kts | 32° |
| 2026-05-04 14:46 | 2.45393 | -25.43188 | 34949 ft | 503 kts | 32° |
| 2026-05-04 14:47 | 2.51331 | -25.39457 | 34947 ft | 503 kts | 32° |
| 2026-05-04 14:47 | 2.57268 | -25.35726 | 34947 ft | 503 kts | 32° |
| 2026-05-04 14:48 | 2.63199 | -25.31999 | 34947 ft | 503 kts | 32° |
| 2026-05-04 14:48 | 2.69136 | -25.28267 | 34947 ft | 503 kts | 32° |
| 2026-05-04 14:49 | 2.75044 | -25.24554 | 34944 ft | 503 kts | 32° |
| 2026-05-04 14:49 | 2.80985 | -25.20819 | 34947 ft | 504 kts | 32° |
| 2026-05-04 14:50 | 2.86923 | -25.17085 | 34946 ft | 504 kts | 32° |
| 2026-05-04 14:50 | 2.92871 | -25.13346 | 34947 ft | 504 kts | 32° |
| 2026-05-04 14:51 | 2.98774 | -25.09633 | 34947 ft | 504 kts | 32° |
| 2026-05-04 14:51 | 3.04720 | -25.05893 | 34947 ft | 504 kts | 32° |
| 2026-05-04 14:52 | 3.10662 | -25.02155 | 34948 ft | 504 kts | 32° |
| 2026-05-04 14:52 | 3.16598 | -24.98421 | 34947 ft | 503 kts | 32° |
| 2026-05-04 14:53 | 3.21531 | -24.95317 | 34947 ft | 503 kts | 32° |
| 2026-05-04 14:53 | 3.27469 | -24.91580 | 34947 ft | 503 kts | 32° |
| 2026-05-04 14:54 | 3.33403 | -24.87845 | 34944 ft | 503 kts | 32° |
| 2026-05-04 14:54 | 3.39295 | -24.84136 | 34944 ft | 503 kts | 32° |
| 2026-05-04 14:55 | 3.45220 | -24.80406 | 34950 ft | 503 kts | 32° |
| 2026-05-04 14:55 | 3.51161 | -24.76665 | 34948 ft | 504 kts | 32° |
| 2026-05-04 14:56 | 3.57094 | -24.72929 | 34944 ft | 504 kts | 32° |
| 2026-05-04 14:56 | 3.63037 | -24.69185 | 34944 ft | 504 kts | 32° |
| 2026-05-04 14:57 | 3.68909 | -24.65486 | 34944 ft | 504 kts | 32° |
| 2026-05-04 14:57 | 3.74847 | -24.61745 | 34944 ft | 504 kts | 32° |
| 2026-05-04 14:58 | 3.80742 | -24.58030 | 34944 ft | 504 kts | 32° |
| 2026-05-04 14:58 | 3.86686 | -24.54284 | 34944 ft | 504 kts | 32° |
| 2026-05-04 14:59 | 3.92596 | -24.50559 | 34944 ft | 504 kts | 32° |
| 2026-05-04 15:00 | 4.01502 | -24.44943 | 34944 ft | 504 kts | 32° |
| 2026-05-04 15:00 | 4.07448 | -24.41193 | 34946 ft | 504 kts | 32° |
| 2026-05-04 15:01 | 4.16360 | -24.35571 | 34943 ft | 503 kts | 32° |
| 2026-05-04 15:01 | 4.22288 | -24.31831 | 34947 ft | 503 kts | 32° |
| 2026-05-04 15:02 | 4.28220 | -24.28088 | 34944 ft | 503 kts | 32° |
| 2026-05-04 15:02 | 4.34108 | -24.24371 | 34944 ft | 504 kts | 32° |
| 2026-05-04 15:03 | 4.40043 | -24.20625 | 34947 ft | 504 kts | 32° |
| 2026-05-04 15:03 | 4.45969 | -24.16883 | 34944 ft | 504 kts | 32° |
| 2026-05-04 15:04 | 4.51899 | -24.13138 | 34944 ft | 504 kts | 32° |
| 2026-05-04 15:04 | 4.57832 | -24.09391 | 34944 ft | 505 kts | 32° |
| 2026-05-04 15:05 | 4.63797 | -24.05622 | 34940 ft | 506 kts | 32° |
| 2026-05-04 15:05 | 4.69756 | -24.01857 | 34941 ft | 505 kts | 32° |
| 2026-05-04 15:06 | 4.75710 | -23.98093 | 34941 ft | 505 kts | 32° |
| 2026-05-04 15:07 | 4.84594 | -23.92477 | 34943 ft | 505 kts | 32° |
| 2026-05-04 15:07 | 4.90547 | -23.88712 | 34942 ft | 506 kts | 32° |
| 2026-05-04 15:08 | 4.96509 | -23.84941 | 34941 ft | 506 kts | 32° |
| 2026-05-04 15:08 | 5.02476 | -23.81167 | 34941 ft | 506 kts | 32° |
| 2026-05-04 15:09 | 5.08439 | -23.77394 | 34941 ft | 506 kts | 32° |
| 2026-05-04 15:09 | 5.14355 | -23.73649 | 34941 ft | 506 kts | 32° |
| 2026-05-04 15:10 | 5.23293 | -23.67990 | 34941 ft | 506 kts | 32° |
| 2026-05-04 15:11 | 5.32242 | -23.62323 | 34938 ft | 507 kts | 32° |
| 2026-05-04 15:11 | 5.38203 | -23.58547 | 34935 ft | 507 kts | 32° |
| 2026-05-04 15:12 | 5.44183 | -23.54758 | 34940 ft | 507 kts | 32° |
| 2026-05-04 15:12 | 5.50108 | -23.51003 | 34938 ft | 507 kts | 32° |
| 2026-05-04 15:13 | 5.56086 | -23.47213 | 34935 ft | 507 kts | 32° |
| 2026-05-04 15:13 | 5.62046 | -23.43433 | 34936 ft | 507 kts | 32° |
| 2026-05-04 15:14 | 5.68014 | -23.39648 | 34934 ft | 507 kts | 32° |
| 2026-05-04 15:14 | 5.73979 | -23.35864 | 34936 ft | 507 kts | 32° |
| 2026-05-04 15:15 | 5.79949 | -23.32076 | 34937 ft | 507 kts | 32° |
| 2026-05-04 15:15 | 5.85919 | -23.28286 | 34936 ft | 507 kts | 32° |
| 2026-05-04 15:16 | 5.94866 | -23.22605 | 34938 ft | 507 kts | 32° |
| 2026-05-04 15:17 | 6.03779 | -23.16944 | 34930 ft | 507 kts | 32° |
| 2026-05-04 15:17 | 6.12740 | -23.11250 | 34930 ft | 507 kts | 32° |
| 2026-05-04 15:18 | 6.18712 | -23.07454 | 34930 ft | 507 kts | 32° |
| 2026-05-04 15:19 | 6.27654 | -23.01768 | 34931 ft | 506 kts | 32° |
| 2026-05-04 15:19 | 6.36556 | -22.96105 | 34930 ft | 507 kts | 31° |
| 2026-05-04 15:20 | 6.42525 | -22.92307 | 34927 ft | 507 kts | 31° |
| 2026-05-04 15:20 | 6.48481 | -22.88516 | 34933 ft | 507 kts | 31° |
| 2026-05-04 15:21 | 6.54449 | -22.84716 | 34933 ft | 507 kts | 31° |
| 2026-05-04 15:22 | 6.63393 | -22.79019 | 34932 ft | 507 kts | 31° |
| 2026-05-04 15:22 | 6.72337 | -22.73320 | 34933 ft | 507 kts | 31° |
| 2026-05-04 15:23 | 6.78257 | -22.69547 | 34933 ft | 507 kts | 31° |
| 2026-05-04 15:23 | 6.84214 | -22.65748 | 34933 ft | 507 kts | 32° |
| 2026-05-04 15:24 | 6.96137 | -22.58142 | 34933 ft | 507 kts | 32° |
| 2026-05-04 15:25 | 7.02098 | -22.54338 | 34930 ft | 507 kts | 31° |